Time;durP1;ratioP1;P1;durP2;ratioP2;P2;SDS_P1;SDS_P2;PMS_P1;PMS_P2;Temp;Humidity;BMP_temperature;BMP_pressure;BME280_temperature;BME280_humidity;BME280_pressure;Samples;Min_cycle;Max_cycle;Signal;HPM_P1;HPM_P2
2022/11/08 03:48:09;;;;;;;5.95;0.70;;;6.50;92.40;;;;;;5040364;23;88714;-70
2022/11/08 03:50:35;;;;;;;3.42;0.70;;;6.40;92.40;;;;;;4881983;28;86214;-70
2022/11/08 03:53:00;;;;;;;5.43;0.93;;;6.50;92.60;;;;;;4886192;28;86667;-71
2022/11/08 03:55:27;;;;;;;3.83;0.98;;;6.40;92.60;;;;;;4893837;28;86276;-70
2022/11/08 03:57:55;;;;;;;5.55;0.90;;;6.40;92.70;;;;;;4893596;28;88630;-71
2022/11/08 04:00:23;;;;;;;5.75;1.10;;;6.30;92.70;;;;;;4901436;28;86451;-71
2022/11/08 04:02:49;;;;;;;4.10;0.90;;;6.30;92.80;;;;;;4899179;28;86722;-72
2022/11/08 04:05:15;;;;;;;7.68;0.90;;;6.30;92.80;;;;;;4899308;28;87048;-72
2022/11/08 04:07:42;;;;;;;3.97;0.80;;;6.30;93.00;;;;;;4901175;28;87508;-72
2022/11/08 04:10:09;;;;;;;3.42;0.90;;;6.30;93.10;;;;;;4892522;28;87890;-71
2022/11/08 04:15:27;;;;;;;3.47;1.00;;;6.30;92.90;;;;;;4896308;28;86221;-69
2022/11/08 04:23:32;;;;;;;5.55;0.80;;;6.20;93.60;;;;;;4886057;28;86315;-73
2022/11/08 04:26:01;;;;;;;3.30;1.02;;;6.20;93.50;;;;;;4882921;28;85854;-73
2022/11/08 04:28:29;;;;;;;3.33;1.00;;;6.10;93.80;;;;;;4888216;28;90272;-73
2022/11/08 04:30:57;;;;;;;3.85;1.20;;;6.00;93.80;;;;;;4883839;28;86886;-72
2022/11/08 04:33:23;;;;;;;3.85;0.90;;;6.00;93.80;;;;;;4899459;28;87825;-71
2022/11/08 04:35:51;;;;;;;5.28;1.00;;;6.00;93.70;;;;;;4889714;28;86374;-71
2022/11/08 04:38:17;;;;;;;5.80;1.42;;;6.00;93.60;;;;;;4900216;28;87349;-71
2022/11/08 04:40:43;;;;;;;4.50;1.10;;;5.90;93.40;;;;;;4904611;28;87002;-71
2022/11/08 04:43:09;;;;;;;3.67;1.08;;;5.80;93.90;;;;;;4890962;28;86696;-71
2022/11/08 04:45:34;;;;;;;4.07;1.30;;;5.80;94.10;;;;;;4895114;28;86844;-71
2022/11/08 04:48:00;;;;;;;3.80;1.20;;;5.80;94.10;;;;;;4886439;28;87550;-72
2022/11/08 04:50:26;;;;;;;5.50;1.40;;;5.70;94.20;;;;;;4889821;28;86269;-70
2022/11/08 04:52:53;;;;;;;3.28;1.25;;;5.70;94.00;;;;;;4885720;28;86713;-71
2022/11/08 04:55:19;;;;;;;4.35;1.20;;;5.70;94.30;;;;;;4890272;28;86554;-71
2022/11/08 04:57:46;;;;;;;5.30;1.90;;;5.70;94.40;;;;;;4918985;28;88163;-69
2022/11/08 05:00:12;;;;;;;7.32;2.35;;;5.60;94.30;;;;;;4908355;28;87372;-71
2022/11/08 05:02:38;;;;;;;6.38;1.60;;;5.60;94.60;;;;;;4889787;28;87173;-71
2022/11/08 05:05:04;;;;;;;6.05;1.77;;;5.60;94.60;;;;;;4889675;28;88098;-71
2022/11/08 05:07:30;;;;;;;3.50;1.00;;;5.60;94.90;;;;;;4895406;28;88116;-71
2022/11/08 05:09:56;;;;;;;5.47;1.60;;;5.50;94.70;;;;;;4906293;28;86788;-71
2022/11/08 05:12:22;;;;;;;4.65;1.27;;;5.50;95.30;;;;;;4896963;28;88131;-72
2022/11/08 05:14:48;;;;;;;3.72;1.10;;;5.50;95.80;;;;;;4898779;28;85987;-72
2022/11/08 05:17:14;;;;;;;4.07;1.35;;;5.40;95.40;;;;;;4911640;28;86867;-71
2022/11/08 05:25:08;;;;;;;5.05;1.50;;;5.40;96.00;;;;;;4894569;28;86248;-71
2022/11/08 05:27:33;;;;;;;5.25;1.48;;;5.30;96.60;;;;;;4898892;28;87622;-72
2022/11/08 05:29:59;;;;;;;3.88;1.52;;;5.20;97.00;;;;;;4887323;28;87229;-71
2022/11/08 05:32:25;;;;;;;5.03;1.10;;;5.20;96.50;;;;;;4897042;28;86963;-71
2022/11/08 05:34:51;;;;;;;5.95;1.25;;;5.20;97.20;;;;;;4903692;28;86460;-71
2022/11/08 05:37:16;;;;;;;4.90;1.20;;;5.20;97.30;;;;;;4889090;28;86902;-71
2022/11/08 05:39:42;;;;;;;3.42;1.10;;;5.20;97.40;;;;;;4895969;28;86061;-71
2022/11/08 05:42:08;;;;;;;3.42;1.17;;;5.20;97.50;;;;;;4883805;28;86308;-72
2022/11/08 05:44:33;;;;;;;3.75;0.88;;;5.20;97.70;;;;;;4879758;28;86801;-72
2022/11/08 05:46:59;;;;;;;5.50;1.13;;;5.20;97.70;;;;;;4892945;28;88428;-72
2022/11/08 05:49:25;;;;;;;3.83;0.93;;;5.30;97.80;;;;;;4897923;28;87986;-71
2022/11/08 05:51:50;;;;;;;3.35;0.70;;;5.30;97.30;;;;;;4895084;28;86360;-72
2022/11/08 05:54:16;;;;;;;3.55;0.93;;;5.30;97.00;;;;;;4894111;28;86306;-72
2022/11/08 05:56:42;;;;;;;4.57;1.17;;;5.30;97.00;;;;;;4880929;28;86995;-71
2022/11/08 05:59:08;;;;;;;3.95;1.10;;;5.30;97.10;;;;;;4891392;28;87302;-72
2022/11/08 06:01:33;;;;;;;4.15;1.10;;;5.30;97.30;;;;;;4892100;28;87101;-72
2022/11/08 06:03:59;;;;;;;3.70;1.25;;;5.30;97.30;;;;;;4885506;28;86031;-71
2022/11/08 06:06:26;;;;;;;3.53;1.00;;;5.40;97.80;;;;;;4884498;28;87441;-71
2022/11/08 06:08:51;;;;;;;4.35;1.25;;;5.40;97.60;;;;;;4885381;28;86921;-72
2022/11/08 06:11:23;;;;;;;3.65;1.20;;;5.50;97.70;;;;;;4889076;28;87804;-72
2022/11/08 06:13:50;;;;;;;5.38;1.35;;;5.50;97.60;;;;;;4882006;28;86992;-70
2022/11/08 06:16:17;;;;;;;6.78;1.45;;;5.50;97.30;;;;;;4884283;28;87094;-71
2022/11/08 06:18:43;;;;;;;3.58;1.27;;;5.50;97.10;;;;;;4876965;28;88386;-72
2022/11/08 06:21:14;;;;;;;5.78;1.55;;;5.50;97.20;;;;;;4882623;28;87297;-71
2022/11/08 06:23:41;;;;;;;6.30;1.90;;;5.50;97.00;;;;;;4887595;28;86270;-71
2022/11/08 06:26:07;;;;;;;7.28;1.73;;;5.40;97.30;;;;;;4891154;28;90121;-71
2022/11/08 06:28:34;;;;;;;6.80;1.70;;;5.50;97.40;;;;;;4880041;28;88071;-72
2022/11/08 06:31:01;;;;;;;6.57;2.10;;;5.50;97.40;;;;;;4884315;28;86339;-71
2022/11/08 06:33:28;;;;;;;6.93;2.15;;;5.50;97.30;;;;;;4891276;28;87308;-71
2022/11/08 06:35:54;;;;;;;8.57;1.83;;;5.50;97.10;;;;;;4891333;28;87711;-71
2022/11/08 06:38:20;;;;;;;6.00;1.73;;;5.40;96.80;;;;;;4887429;28;87140;-71
2022/11/08 06:40:46;;;;;;;5.28;1.80;;;5.50;96.80;;;;;;4889921;28;86247;-71
2022/11/08 06:43:11;;;;;;;7.82;2.20;;;5.50;96.80;;;;;;4892904;28;86291;-70
2022/11/08 06:45:37;;;;;;;9.93;2.40;;;5.60;96.30;;;;;;4897832;28;86918;-72
2022/11/08 06:48:05;;;;;;;7.78;2.10;;;5.70;96.00;;;;;;4898754;28;86800;-72
2022/11/08 06:50:32;;;;;;;5.88;1.88;;;5.80;95.40;;;;;;4891655;28;86636;-72
2022/11/08 06:53:10;;;;;;;7.35;2.00;;;6.10;95.40;;;;;;4898394;28;87829;-72
2022/11/08 06:55:35;;;;;;;4.85;1.50;;;7.00;93.50;;;;;;4891395;28;87205;-72
2022/11/08 06:58:02;;;;;;;5.75;1.30;;;7.80;91.10;;;;;;4889311;28;86635;-71
2022/11/08 07:00:28;;;;;;;7.00;1.67;;;9.10;88.10;;;;;;4889370;28;87853;-71
2022/11/08 07:02:55;;;;;;;5.07;1.60;;;10.10;82.50;;;;;;4883085;28;86566;-71
2022/11/08 07:05:22;;;;;;;6.07;1.45;;;10.70;79.20;;;;;;4892718;28;87256;-72
2022/11/08 07:07:50;;;;;;;7.18;1.88;;;11.50;75.20;;;;;;4884919;28;87031;-71
2022/11/08 07:10:21;;;;;;;6.63;1.90;;;12.00;73.00;;;;;;4893450;28;86625;-72
2022/11/08 07:12:47;;;;;;;13.10;3.65;;;12.30;71.90;;;;;;4886293;28;86696;-71
2022/11/08 07:15:14;;;;;;;8.05;2.90;;;13.20;69.10;;;;;;4895463;28;87066;-71
2022/11/08 07:17:39;;;;;;;8.30;2.78;;;14.20;67.80;;;;;;4897946;28;87450;-71
2022/11/08 07:20:07;;;;;;;5.20;2.50;;;15.80;63.30;;;;;;4887585;28;86357;-71
2022/11/08 07:22:33;;;;;;;6.28;2.28;;;17.00;61.30;;;;;;4894770;28;86653;-72
2022/11/08 07:24:58;;;;;;;5.57;2.72;;;18.30;57.60;;;;;;4889312;28;88258;-72
2022/11/08 07:27:24;;;;;;;6.80;2.03;;;18.20;57.50;;;;;;4885690;28;87260;-71
2022/11/08 07:29:49;;;;;;;5.00;2.08;;;17.60;58.60;;;;;;4893673;28;87830;-71
2022/11/08 07:32:15;;;;;;;2.67;1.40;;;16.60;61.70;;;;;;4901124;28;86706;-71
2022/11/08 07:34:41;;;;;;;3.50;1.40;;;16.30;63.30;;;;;;4897352;28;87380;-71
2022/11/08 07:37:06;;;;;;;5.57;1.40;;;16.80;63.20;;;;;;4895697;28;86388;-71
2022/11/08 07:39:32;;;;;;;3.65;1.30;;;16.40;63.20;;;;;;4899346;28;87683;-71
2022/11/08 07:41:58;;;;;;;5.10;1.60;;;15.70;65.10;;;;;;4896941;28;85546;-71
2022/11/08 07:44:23;;;;;;;6.70;1.20;;;14.60;67.60;;;;;;4896537;28;87282;-71
2022/11/08 07:46:49;;;;;;;6.47;1.30;;;14.10;70.30;;;;;;4888994;28;87130;-71
2022/11/08 07:49:14;;;;;;;3.63;1.45;;;13.60;72.20;;;;;;4896622;28;87893;-71
2022/11/08 07:51:40;;;;;;;6.30;1.75;;;13.40;73.40;;;;;;4899562;28;86673;-70
2022/11/08 07:54:06;;;;;;;6.28;1.75;;;13.30;74.50;;;;;;4885401;28;86340;-71
2022/11/08 07:56:31;;;;;;;4.07;1.45;;;13.60;74.50;;;;;;4890602;28;86919;-71
2022/11/08 07:58:57;;;;;;;5.72;1.63;;;14.40;72.30;;;;;;4892831;28;86682;-71
2022/11/08 08:01:23;;;;;;;6.28;2.47;;;14.50;71.60;;;;;;4891972;28;87136;-70
2022/11/08 08:03:48;;;;;;;5.88;1.80;;;14.00;72.60;;;;;;4900871;28;86686;-71
2022/11/08 08:06:14;;;;;;;5.28;2.00;;;13.60;74.00;;;;;;4899844;28;86933;-72
2022/11/08 08:08:40;;;;;;;5.25;2.00;;;13.60;74.80;;;;;;4896800;28;86888;-71
2022/11/08 08:11:05;;;;;;;4.50;2.03;;;14.00;73.50;;;;;;4897982;28;86564;-71
2022/11/08 08:13:31;;;;;;;5.72;2.22;;;14.90;72.70;;;;;;4897884;28;88267;-72
2022/11/08 08:16:01;;;;;;;5.68;2.25;;;16.80;67.80;;;;;;4888834;28;87253;-71
2022/11/08 08:18:28;;;;;;;6.20;2.72;;;19.00;62.40;;;;;;4899014;28;86668;-73
2022/11/08 08:20:53;;;;;;;8.07;2.35;;;21.20;56.40;;;;;;4887559;28;86903;-72
2022/11/08 08:23:19;;;;;;;4.80;2.22;;;22.80;52.40;;;;;;4894456;28;87268;-74
2022/11/08 08:25:45;;;;;;;3.92;1.73;;;23.00;51.00;;;;;;4899714;28;86940;-72
2022/11/08 08:28:10;;;;;;;3.17;1.83;;;23.80;49.90;;;;;;4890486;28;88681;-72
2022/11/08 08:30:37;;;;;;;4.47;2.30;;;22.70;51.10;;;;;;4899318;28;86302;-72
2022/11/08 08:33:09;;;;;;;5.22;2.28;;;21.30;52.70;;;;;;4886442;28;87511;-71
2022/11/08 08:35:35;;;;;;;3.65;2.30;;;20.40;55.20;;;;;;4894773;28;87456;-71
2022/11/08 08:38:02;;;;;;;8.05;2.67;;;19.40;57.40;;;;;;4899149;28;87908;-71
2022/11/08 08:40:29;;;;;;;5.53;3.45;;;20.50;56.00;;;;;;4899957;28;86605;-72
2022/11/08 08:42:57;;;;;;;4.95;2.47;;;21.50;54.00;;;;;;4898809;28;87216;-71
2022/11/08 08:45:23;;;;;;;3.75;2.40;;;22.10;53.70;;;;;;4896507;28;86283;-73
2022/11/08 08:47:56;;;;;;;4.28;2.38;;;23.30;51.40;;;;;;4890493;28;86525;-72
2022/11/08 08:50:23;;;;;;;6.20;2.88;;;23.00;50.30;;;;;;4898806;28;86239;-72
2022/11/08 08:52:49;;;;;;;4.28;2.35;;;22.40;52.30;;;;;;4894007;28;87312;-72
2022/11/08 08:55:15;;;;;;;4.15;2.00;;;22.40;51.90;;;;;;4887525;28;86298;-72
2022/11/08 08:57:47;;;;;;;5.00;2.65;;;22.30;52.70;;;;;;4893340;28;86304;-72
2022/11/08 09:00:14;;;;;;;3.75;2.13;;;21.30;53.10;;;;;;4886241;28;87108;-72
2022/11/08 09:02:41;;;;;;;4.25;2.13;;;19.70;55.50;;;;;;4886768;28;88044;-70
2022/11/08 09:05:08;;;;;;;4.00;1.90;;;18.90;58.40;;;;;;4891333;28;88131;-71
2022/11/08 09:07:33;;;;;;;4.53;2.30;;;18.30;60.00;;;;;;4891333;28;86337;-71
2022/11/08 09:09:59;;;;;;;4.13;1.95;;;17.80;61.50;;;;;;4893171;28;86801;-70
2022/11/08 09:12:26;;;;;;;5.07;2.28;;;17.90;63.20;;;;;;4893481;28;87162;-71
2022/11/08 09:14:51;;;;;;;3.60;1.75;;;17.60;63.50;;;;;;4895596;28;86930;-71
2022/11/08 09:17:17;;;;;;;5.40;2.15;;;17.60;64.10;;;;;;4890444;28;86621;-71
2022/11/08 09:19:43;;;;;;;5.03;2.33;;;18.20;62.60;;;;;;4890834;28;85626;-71
2022/11/08 09:22:09;;;;;;;5.03;2.03;;;18.00;62.30;;;;;;4896096;28;86532;-70
2022/11/08 09:24:35;;;;;;;7.10;1.90;;;17.70;62.90;;;;;;4888116;28;86895;-70
2022/11/08 09:27:03;;;;;;;4.55;2.15;;;17.40;63.40;;;;;;4896800;28;87726;-70
2022/11/08 09:29:30;;;;;;;3.95;2.58;;;17.40;64.40;;;;;;4890491;28;86592;-71
2022/11/08 09:31:56;;;;;;;3.30;1.95;;;17.50;63.40;;;;;;4891373;28;86697;-71
2022/11/08 09:34:22;;;;;;;5.50;1.60;;;17.80;62.70;;;;;;4893322;28;87591;-73
2022/11/08 09:36:48;;;;;;;3.30;1.58;;;18.30;62.60;;;;;;4888121;28;87101;-72
2022/11/08 09:39:14;;;;;;;3.75;1.67;;;19.40;58.80;;;;;;4898808;28;86706;-71
2022/11/08 09:41:45;;;;;;;4.70;1.55;;;20.60;55.90;;;;;;4898924;28;87134;-70
2022/11/08 09:44:38;;;;;;;3.60;2.05;;;20.10;55.50;;;;;;4892154;28;87440;-71
2022/11/08 09:47:15;;;;;;;3.95;1.88;;;19.50;57.60;;;;;;4898217;28;87015;-71
2022/11/08 09:49:45;;;;;;;5.25;1.70;;;19.50;57.50;;;;;;4890994;28;86788;-71
2022/11/08 09:52:20;;;;;;;4.18;2.17;;;19.70;57.10;;;;;;4893815;28;88062;-70
2022/11/08 09:54:47;;;;;;;3.88;1.77;;;19.80;57.20;;;;;;4885558;28;87795;-71
2022/11/08 09:57:48;;;;;;;4.30;2.13;;;20.90;55.20;;;;;;4896279;28;87077;-71
2022/11/08 10:00:14;;;;;;;5.57;3.35;;;22.20;51.70;;;;;;4890372;28;86484;-71
2022/11/08 10:02:40;;;;;;;4.95;2.88;;;23.30;50.70;;;;;;4890631;28;87136;-73
2022/11/08 10:05:11;;;;;;;5.38;3.08;;;24.40;47.90;;;;;;4892857;28;87196;-72
2022/11/08 10:07:40;;;;;;;4.43;3.08;;;24.90;46.60;;;;;;4893480;28;86387;-72
2022/11/08 10:10:18;;;;;;;5.20;2.40;;;24.60;46.80;;;;;;4888521;28;85631;-72
2022/11/08 10:13:04;;;;;;;6.28;2.50;;;23.40;48.00;;;;;;4889742;28;87325;-72
2022/11/08 10:15:38;;;;;;;8.48;2.45;;;22.60;50.20;;;;;;4886170;28;88348;-71
2022/11/08 10:18:07;;;;;;;3.50;1.98;;;22.10;51.40;;;;;;4891166;28;87337;-72
2022/11/08 10:20:48;;;;;;;4.35;2.05;;;20.60;53.20;;;;;;4890493;28;87507;-70
2022/11/08 10:23:16;;;;;;;5.05;2.17;;;19.20;56.30;;;;;;4881420;28;87200;-71
2022/11/08 10:25:48;;;;;;;6.00;2.33;;;18.20;59.20;;;;;;4890831;28;86820;-71
2022/11/08 10:28:16;;;;;;;4.53;2.22;;;17.40;62.20;;;;;;4895556;28;86679;-70
2022/11/08 10:30:49;;;;;;;5.95;2.88;;;16.80;64.60;;;;;;4896592;28;86302;-70
2022/11/08 10:33:24;;;;;;;4.18;2.78;;;16.50;66.40;;;;;;4898293;28;86392;-70
2022/11/08 10:36:00;;;;;;;6.40;2.38;;;16.20;67.30;;;;;;4889508;28;86372;-71
2022/11/08 10:38:45;;;;;;;5.47;2.33;;;15.70;68.70;;;;;;4885300;28;87298;-71
2022/11/08 10:41:25;;;;;;;5.00;2.75;;;15.40;70.30;;;;;;4887650;28;86362;-71
2022/11/08 10:43:56;;;;;;;8.88;4.22;;;15.20;72.30;;;;;;4885070;28;88500;-72
2022/11/08 10:46:25;;;;;;;5.40;3.08;;;15.00;71.70;;;;;;4891082;28;87100;-71
2022/11/08 10:48:51;;;;;;;4.57;1.90;;;14.60;73.10;;;;;;4880147;28;86400;-71
2022/11/08 10:51:16;;;;;;;5.30;2.05;;;14.40;73.60;;;;;;4880163;28;86796;-69
2022/11/08 10:53:43;;;;;;;4.22;1.77;;;14.40;73.60;;;;;;4891219;28;87227;-71
2022/11/08 10:56:09;;;;;;;6.07;2.10;;;14.50;73.80;;;;;;4890338;28;86780;-72
2022/11/08 10:58:40;;;;;;;6.50;2.15;;;14.70;73.20;;;;;;4882808;28;86805;-72
2022/11/08 11:01:18;;;;;;;6.45;2.30;;;14.70;72.90;;;;;;4886762;28;85581;-71
2022/11/08 11:03:45;;;;;;;3.80;1.95;;;14.80;73.20;;;;;;4885690;28;87419;-71
2022/11/08 11:06:31;;;;;;;7.05;2.08;;;14.90;71.80;;;;;;4893269;28;87025;-71
2022/11/08 11:09:00;;;;;;;3.90;1.67;;;14.80;71.20;;;;;;4895654;28;87651;-71
2022/11/08 11:11:32;;;;;;;3.55;1.60;;;14.70;70.60;;;;;;4884630;28;87761;-71
2022/11/08 11:14:16;;;;;;;3.08;1.25;;;14.70;70.80;;;;;;4895398;28;87249;-71
2022/11/08 11:17:02;;;;;;;3.92;1.10;;;14.80;69.00;;;;;;4881748;28;87010;-71
2022/11/08 11:19:29;;;;;;;5.28;1.27;;;14.80;67.50;;;;;;4879727;28;86324;-73
2022/11/08 11:22:06;;;;;;;2.85;0.90;;;14.90;65.80;;;;;;4887014;28;87045;-72
2022/11/08 11:24:34;;;;;;;5.60;0.90;;;14.90;66.50;;;;;;4889553;28;87303;-70
2022/11/08 11:27:05;;;;;;;3.92;0.68;;;14.90;66.10;;;;;;4896831;28;87377;-72
2022/11/08 11:29:38;;;;;;;2.65;0.73;;;15.00;66.50;;;;;;4895812;28;86856;-72
2022/11/08 11:32:40;;;;;;;3.45;1.00;;;15.10;65.40;;;;;;4893312;28;86288;-72
2022/11/08 11:35:12;;;;;;;2.53;0.70;;;15.20;65.00;;;;;;4854973;29;88247;-71
2022/11/08 11:37:47;;;;;;;2.03;0.50;;;15.20;64.70;;;;;;4886323;28;87124;-71
2022/11/08 11:40:41;;;;;;;4.18;0.93;;;15.20;63.10;;;;;;4885772;28;86800;-72
2022/11/08 11:43:28;;;;;;;2.55;0.93;;;15.20;63.90;;;;;;4885997;28;86449;-71
2022/11/08 11:46:19;;;;;;;4.40;0.73;;;15.20;64.00;;;;;;4888108;28;87528;-72
2022/11/08 11:49:03;;;;;;;3.58;0.70;;;15.30;63.40;;;;;;4890920;28;86868;-71
2022/11/08 11:51:29;;;;;;;6.40;0.73;;;15.50;63.30;;;;;;4878703;28;86867;-73
2022/11/08 11:53:57;;;;;;;3.85;0.50;;;15.60;62.80;;;;;;4885514;28;86769;-71
2022/11/08 11:56:34;;;;;;;3.28;0.45;;;15.80;61.90;;;;;;4888389;28;87330;-71
2022/11/08 11:59:18;;;;;;;1.95;0.40;;;15.90;59.20;;;;;;4891837;28;88195;-71
2022/11/08 12:02:10;;;;;;;8.43;0.40;;;16.10;59.50;;;;;;4878865;28;87951;-70
2022/11/08 12:04:57;;;;;;;1.73;0.22;;;16.30;59.30;;;;;;4886596;28;86335;-70
2022/11/08 12:07:26;;;;;;;4.45;0.40;;;16.60;57.30;;;;;;4880012;28;87143;-71
2022/11/08 12:10:21;;;;;;;1.52;0.30;;;16.80;58.50;;;;;;4888336;28;87903;-72
2022/11/08 12:13:02;;;;;;;;;;;17.00;56.90;;;;;;4885824;28;86373;-71
2022/11/08 12:15:45;;;;;;;2.40;0.40;;;17.10;56.00;;;;;;4888141;28;86995;-71
2022/11/08 12:18:19;;;;;;;4.18;0.75;;;17.20;56.60;;;;;;4889852;28;87738;-70
2022/11/08 12:20:50;;;;;;;3.85;0.93;;;17.20;57.30;;;;;;4890861;28;87005;-72
2022/11/08 12:23:28;;;;;;;5.78;0.50;;;17.20;57.40;;;;;;4892920;28;86933;-71
2022/11/08 12:26:10;;;;;;;5.03;0.40;;;17.10;57.60;;;;;;4882150;28;86523;-71
2022/11/08 12:28:45;;;;;;;3.40;0.40;;;17.10;55.40;;;;;;4889211;28;87575;-71
2022/11/08 12:31:20;;;;;;;2.15;0.45;;;17.10;59.00;;;;;;4879290;28;87194;-71
2022/11/08 12:34:00;;;;;;;2.67;0.60;;;17.10;57.60;;;;;;4882525;28;86969;-71
2022/11/08 12:36:41;;;;;;;5.68;0.70;;;17.10;57.40;;;;;;4891559;28;86725;-71
2022/11/08 12:39:10;;;;;;;3.15;0.95;;;17.00;58.40;;;;;;4887817;28;87112;-73
2022/11/08 12:41:59;;;;;;;2.75;1.00;;;17.00;59.60;;;;;;4888318;28;86975;-71
2022/11/08 12:44:50;;;;;;;3.05;0.93;;;16.90;61.30;;;;;;4885368;28;86669;-71
2022/11/08 12:47:32;;;;;;;6.25;1.00;;;16.80;61.70;;;;;;4882241;28;86031;-71
2022/11/08 12:50:19;;;;;;;2.33;0.95;;;16.70;62.00;;;;;;4887683;28;87827;-71
2022/11/08 12:53:24;;;;;;;3.80;1.23;;;16.70;62.60;;;;;;4885706;28;86795;-71
2022/11/08 12:55:53;;;;;;;3.83;1.20;;;16.70;62.30;;;;;;4884948;28;87355;-72
2022/11/08 12:58:44;;;;;;;4.80;1.08;;;16.70;62.70;;;;;;4881525;28;86481;-72
2022/11/08 13:01:13;;;;;;;5.85;1.48;;;16.80;61.70;;;;;;4883921;28;86632;-71
2022/11/08 13:03:41;;;;;;;6.65;1.40;;;16.80;61.70;;;;;;4896515;28;86799;-71
2022/11/08 13:06:13;;;;;;;4.43;1.20;;;16.90;61.00;;;;;;4886041;28;86583;-71
2022/11/08 13:08:58;;;;;;;5.45;1.10;;;16.90;60.40;;;;;;4889390;28;86606;-71
2022/11/08 13:11:47;;;;;;;5.57;0.90;;;16.90;60.70;;;;;;4884955;28;88017;-71
2022/11/08 13:14:14;;;;;;;;;;;16.90;60.70;;;;;;4873002;28;87220;-72
2022/11/08 13:16:42;;;;;;;5.05;1.30;;;16.90;61.40;;;;;;4888180;28;86788;-71
2022/11/08 13:19:27;;;;;;;5.88;1.23;;;16.80;61.10;;;;;;4888855;28;86308;-71
2022/11/08 13:21:53;;;;;;;7.47;1.83;;;16.90;61.00;;;;;;4883717;28;88774;-71
2022/11/08 13:24:19;;;;;;;5.35;1.42;;;17.00;61.70;;;;;;4886172;28;87202;-71
2022/11/08 13:26:45;;;;;;;9.90;1.60;;;17.20;61.60;;;;;;4888335;28;86176;-70
2022/11/08 13:29:17;;;;;;;6.10;1.20;;;17.10;61.70;;;;;;4886468;28;86711;-71
2022/11/08 13:31:55;;;;;;;5.00;1.45;;;17.10;62.00;;;;;;4888653;28;86757;-70
2022/11/08 13:34:42;;;;;;;3.85;1.13;;;17.00;68.70;;;;;;4879972;28;87021;-70
2022/11/08 13:37:16;;;;;;;3.35;1.13;;;16.80;63.30;;;;;;4894152;28;86977;-72
2022/11/08 13:40:04;;;;;;;5.18;1.52;;;16.60;62.80;;;;;;4890935;28;85999;-72
2022/11/08 13:42:38;;;;;;;7.18;2.03;;;16.50;63.30;;;;;;4884435;28;87071;-72
2022/11/08 13:45:15;;;;;;;2.95;0.98;;;16.40;65.00;;;;;;4885965;28;86926;-71
2022/11/08 13:47:41;;;;;;;4.75;1.13;;;16.30;65.70;;;;;;4886887;28;88886;-71
2022/11/08 13:50:30;;;;;;;4.60;0.82;;;16.20;66.90;;;;;;4883717;28;86303;-71
2022/11/08 13:53:17;;;;;;;3.85;1.10;;;16.10;67.90;;;;;;4880227;28;87217;-71
2022/11/08 13:55:43;;;;;;;3.28;1.00;;;16.10;68.80;;;;;;4879661;28;86330;-72
2022/11/08 13:58:36;;;;;;;4.35;1.38;;;16.10;68.60;;;;;;4880500;28;86806;-71
2022/11/08 14:01:29;;;;;;;10.38;1.38;;;16.20;69.20;;;;;;4890567;28;86801;-71
2022/11/08 14:03:57;;;;;;;4.00;1.42;;;16.10;69.10;;;;;;4880400;28;92439;-72
2022/11/08 14:06:51;;;;;;;9.57;1.20;;;16.10;69.20;;;;;;4878157;28;91167;-72
2022/11/08 14:09:27;;;;;;;5.20;1.30;;;16.10;69.50;;;;;;4880141;28;91723;-71
2022/11/08 14:11:52;;;;;;;4.32;1.02;;;16.10;70.00;;;;;;4884264;28;92803;-71
2022/11/08 14:14:33;;;;;;;6.13;1.20;;;16.00;70.50;;;;;;4880263;28;93416;-71
2022/11/08 14:17:07;;;;;;;4.72;1.10;;;15.90;71.10;;;;;;4887087;28;92240;-70
2022/11/08 14:19:36;;;;;;;4.13;1.08;;;15.80;71.00;;;;;;4882136;28;93350;-71
2022/11/08 14:22:03;;;;;;;7.53;1.95;;;15.70;70.00;;;;;;4885113;28;91561;-71
2022/11/08 14:24:34;;;;;;;9.40;3.42;;;15.70;70.80;;;;;;4882096;28;91732;-71
2022/11/08 14:27:00;;;;;;;5.00;1.55;;;15.60;71.60;;;;;;4881257;28;91983;-71
2022/11/08 14:29:26;;;;;;;4.88;1.00;;;15.60;70.80;;;;;;4886393;28;91359;-72
2022/11/08 14:32:17;;;;;;;7.30;1.08;;;15.50;70.30;;;;;;4881442;28;91070;-72
2022/11/08 14:34:43;;;;;;;5.68;0.90;;;15.50;69.80;;;;;;4886652;28;92302;-72
2022/11/08 14:37:23;;;;;;;4.50;1.15;;;15.50;69.30;;;;;;4880506;28;92147;-70
2022/11/08 14:39:50;;;;;;;6.10;1.30;;;15.60;70.30;;;;;;4881571;28;92994;-72
2022/11/08 14:42:23;;;;;;;6.03;1.23;;;15.50;69.80;;;;;;4880538;28;92023;-71
2022/11/08 14:44:55;;;;;;;3.88;0.82;;;15.60;70.80;;;;;;4884058;28;92274;-71
2022/11/08 14:47:29;;;;;;;2.92;0.93;;;15.50;71.70;;;;;;4885688;28;91506;-71
2022/11/08 14:49:57;;;;;;;5.75;1.58;;;15.50;72.10;;;;;;4893720;28;91585;-70
2022/11/08 14:52:31;;;;;;;23.63;1.40;;;15.50;72.00;;;;;;4886332;28;91605;-70
2022/11/08 14:55:07;;;;;;;7.80;1.05;;;15.40;72.30;;;;;;4885787;28;92309;-72
2022/11/08 14:57:37;;;;;;;;;;;15.40;72.30;;;;;;4885708;28;91008;-71
2022/11/08 15:00:16;;;;;;;4.88;1.42;;;15.40;72.00;;;;;;4878453;28;91974;-70
2022/11/08 15:02:45;;;;;;;8.07;1.50;;;15.40;69.40;;;;;;4882062;28;91852;-71
2022/11/08 15:05:39;;;;;;;5.80;1.63;;;15.40;68.60;;;;;;4886251;28;92723;-72
2022/11/08 15:08:16;;;;;;;7.80;1.60;;;15.30;69.30;;;;;;4881113;28;92581;-71
2022/11/08 15:11:02;;;;;;;8.32;1.42;;;15.30;68.90;;;;;;4891039;28;91354;-71
2022/11/08 15:13:32;;;;;;;7.97;2.30;;;15.20;68.20;;;;;;4891084;28;92105;-71
2022/11/08 15:16:03;;;;;;;4.47;1.77;;;15.10;68.40;;;;;;4886750;28;92322;-71
2022/11/08 15:18:35;;;;;;;18.67;1.75;;;15.10;68.50;;;;;;4887766;28;92022;-71
2022/11/08 15:21:04;;;;;;;12.63;1.80;;;15.00;68.50;;;;;;4884852;28;91859;-71
2022/11/08 15:23:42;;;;;;;5.80;1.98;;;14.90;68.40;;;;;;4886841;28;90898;-72
2022/11/08 15:26:21;;;;;;;8.40;1.40;;;14.80;68.90;;;;;;4878921;28;92732;-73
2022/11/08 15:29:07;;;;;;;5.95;1.45;;;14.70;69.80;;;;;;4888184;28;91547;-72
2022/11/08 15:31:40;;;;;;;8.43;1.75;;;14.50;70.80;;;;;;4876624;28;92617;-72
2022/11/08 15:34:18;;;;;;;6.85;2.35;;;14.40;70.70;;;;;;4876835;28;91321;-71
2022/11/08 15:36:44;;;;;;;12.85;2.10;;;14.30;70.50;;;;;;4893762;28;91707;-71
2022/11/08 15:39:22;;;;;;;8.82;2.22;;;14.20;71.10;;;;;;4893443;28;91998;-71
2022/11/08 15:42:02;;;;;;;7.57;1.90;;;14.10;71.50;;;;;;4892297;28;92006;-71
2022/11/08 15:44:28;;;;;;;7.75;2.92;;;14.00;72.90;;;;;;4895657;28;92284;-71
2022/11/08 15:46:55;;;;;;;6.35;2.33;;;13.90;72.60;;;;;;4896278;28;92266;-71
2022/11/08 15:49:29;;;;;;;9.07;2.20;;;13.70;73.80;;;;;;4893050;28;91874;-70
2022/11/08 15:51:57;;;;;;;6.97;2.10;;;13.60;74.50;;;;;;4890215;28;91301;-70
2022/11/08 15:54:25;;;;;;;13.10;2.83;;;13.50;74.80;;;;;;4892919;28;92042;-70
2022/11/08 15:56:53;;;;;;;20.15;2.60;;;13.40;76.30;;;;;;4890440;28;93259;-70
2022/11/08 15:59:26;;;;;;;9.13;2.72;;;13.30;76.20;;;;;;4883692;28;92101;-70
2022/11/08 16:01:55;;;;;;;6.55;2.35;;;13.30;76.80;;;;;;4885030;28;92005;-70
2022/11/08 16:04:20;;;;;;;13.20;2.78;;;13.20;76.90;;;;;;4886226;28;91955;-70
2022/11/08 16:06:46;;;;;;;9.27;2.67;;;13.10;77.30;;;;;;4879977;28;92224;-70
2022/11/08 16:09:12;;;;;;;12.55;2.90;;;13.10;77.80;;;;;;4878810;28;91846;-70
2022/11/08 16:11:39;;;;;;;8.65;2.97;;;13.00;77.90;;;;;;4880491;28;91674;-72
2022/11/08 16:14:06;;;;;;;8.07;2.08;;;12.80;78.30;;;;;;4888475;28;91339;-70
2022/11/08 16:16:33;;;;;;;12.25;3.20;;;12.80;79.50;;;;;;4884848;28;92740;-71
2022/11/08 16:18:59;;;;;;;10.63;3.45;;;12.70;79.00;;;;;;4881544;28;92140;-70
2022/11/08 16:21:25;;;;;;;10.02;2.92;;;12.60;79.50;;;;;;4883041;28;92705;-70
2022/11/08 16:23:50;;;;;;;7.95;2.58;;;12.50;79.50;;;;;;4893637;28;92443;-70
2022/11/08 16:26:17;;;;;;;11.52;5.20;;;12.40;79.70;;;;;;4882704;28;92191;-71
2022/11/08 16:28:43;;;;;;;10.80;2.80;;;12.30;79.40;;;;;;4887533;28;92441;-71
2022/11/08 16:31:13;;;;;;;8.40;2.03;;;12.20;80.80;;;;;;4879093;28;92113;-70
2022/11/08 16:33:40;;;;;;;6.72;2.47;;;12.00;79.70;;;;;;4890286;28;91920;-70
2022/11/08 16:36:12;;;;;;;7.13;2.83;;;11.90;80.30;;;;;;4892527;28;92497;-70
2022/11/08 16:38:38;;;;;;;6.90;2.65;;;11.80;80.80;;;;;;4886079;28;91946;-71
2022/11/08 16:41:04;;;;;;;7.20;2.38;;;11.80;80.80;;;;;;4885811;28;91776;-71
2022/11/08 16:43:30;;;;;;;7.60;2.65;;;11.70;81.30;;;;;;4885522;28;92017;-70
2022/11/08 16:45:57;;;;;;;11.98;2.70;;;11.60;82.40;;;;;;4884383;28;92806;-70
2022/11/08 16:48:25;;;;;;;10.55;3.00;;;11.50;82.50;;;;;;4891225;28;92130;-71
2022/11/08 16:51:00;;;;;;;14.82;2.72;;;11.50;82.40;;;;;;4882413;28;92155;-70
2022/11/08 16:53:28;;;;;;;6.03;2.35;;;11.40;83.30;;;;;;4888841;28;91708;-71
2022/11/08 16:55:55;;;;;;;6.88;3.10;;;11.30;83.10;;;;;;4884913;28;92279;-70
2022/11/08 16:58:21;;;;;;;9.05;2.80;;;11.30;83.60;;;;;;4884229;28;92725;-70
2022/11/08 17:00:47;;;;;;;10.88;4.57;;;11.20;84.30;;;;;;4886497;28;91593;-71
2022/11/08 17:03:22;;;;;;;14.63;4.03;;;11.20;84.70;;;;;;4887498;28;90995;-70
2022/11/08 17:05:48;;;;;;;13.57;5.40;;;11.10;85.40;;;;;;4882818;28;92858;-70
2022/11/08 17:08:13;;;;;;;12.18;4.18;;;11.00;85.60;;;;;;4885290;28;92952;-72
2022/11/08 17:10:39;;;;;;;11.93;4.03;;;11.00;85.30;;;;;;4879837;28;92892;-70